Time,TemperatureF,DewpointF,PressureIn,WindDirection,WindDirectionDegrees,WindSpeedMPH,WindSpeedGustMPH,Humidity,HourlyPrecipIn,Conditions,Clouds,dailyrainin,SoftwareType,DateUTC
2013-08-26 00:00:00,60.8,49.8,22.63,SSW,195,2.2,4.0,67,0.00,,---,0.00,VWS V14.01,2013-08-26 07:00:00,
2013-08-26 00:20:00,61.0,49.5,22.63,SE,125,3.6,5.4,66,0.00,,---,0.00,VWS V14.01,2013-08-26 07:20:00,
2013-08-26 00:40:00,61.0,49.5,22.63,South,170,0.0,4.9,66,0.00,,---,0.00,VWS V14.01,2013-08-26 07:40:00,
2013-08-26 01:00:00,61.5,52.4,22.63,SE,129,0.0,5.4,72,0.00,,---,0.00,VWS V14.01,2013-08-26 08:00:00,
2013-08-26 01:20:00,61.3,53.7,22.63,South,181,2.7,3.6,76,0.00,,---,0.00,VWS V14.01,2013-08-26 08:20:00,
2013-08-26 01:40:00,60.8,50.2,22.63,South,186,2.7,2.7,68,0.00,,---,0.00,VWS V14.01,2013-08-26 08:40:00,
2013-08-26 02:00:00,60.8,50.2,22.63,South,175,0.0,3.1,68,0.00,,---,0.00,VWS V14.01,2013-08-26 09:00:00,
2013-08-26 02:20:00,61.9,52.0,22.63,SE,135,3.6,5.4,70,0.00,,---,0.00,VWS V14.01,2013-08-26 09:20:00,
2013-08-26 02:40:00,62.6,55.7,22.63,SE,144,2.7,5.4,78,0.00,,---,0.00,VWS V14.01,2013-08-26 09:40:00,
2013-08-26 03:00:00,62.6,55.7,22.63,SE,134,0.0,5.8,78,0.00,,---,0.00,VWS V14.01,2013-08-26 10:00:00,
2013-08-26 03:20:00,62.6,56.0,22.63,SE,131,0.0,5.8,79,0.00,,---,0.00,VWS V14.01,2013-08-26 10:20:00,
2013-08-26 03:40:00,62.6,57.4,22.63,SE,133,2.2,5.8,83,0.00,,---,0.00,VWS V14.01,2013-08-26 10:40:00,
2013-08-26 04:00:00,62.6,58.0,22.63,ESE,108,0.0,4.0,85,0.00,,---,0.00,VWS V14.01,2013-08-26 11:00:00,
2013-08-26 04:20:00,62.4,57.9,22.63,SE,125,0.0,2.7,85,0.00,,---,0.00,VWS V14.01,2013-08-26 11:20:00,
2013-08-26 04:40:00,61.2,55.3,22.63,ESE,119,0.0,3.6,81,0.00,,---,0.00,VWS V14.01,2013-08-26 11:40:00,
2013-08-26 05:00:00,60.6,54.4,22.63,South,171,2.2,4.0,80,0.00,,---,0.00,VWS V14.01,2013-08-26 12:00:00,
2013-08-26 05:20:00,60.4,55.3,22.63,North,357,0.0,2.7,83,0.00,,---,0.00,VWS V14.01,2013-08-26 12:20:00,
2013-08-26 05:40:00,60.4,54.9,22.63,SE,138,0.0,4.9,82,0.00,,---,0.00,VWS V14.01,2013-08-26 12:40:00,
2013-08-26 06:00:00,60.4,55.6,22.63,SE,138,2.7,5.8,84,0.00,,---,0.00,VWS V14.01,2013-08-26 13:00:00,
2013-08-26 06:20:00,60.6,56.1,22.63,ESE,118,2.2,6.3,85,0.00,,---,0.00,VWS V14.01,2013-08-26 13:20:00,
2013-08-26 06:40:00,61.2,56.6,22.63,SE,124,3.6,6.3,85,0.00,,---,0.00,VWS V14.01,2013-08-26 13:40:00,
2013-08-26 07:00:00,61.5,56.7,22.63,ESE,115,0.0,3.6,84,0.00,,---,0.00,VWS V14.01,2013-08-26 14:00:00,
2013-08-26 07:20:00,61.7,57.2,22.63,ESE,122,4.0,4.0,85,0.00,,---,0.00,VWS V14.01,2013-08-26 14:20:00,
2013-08-26 07:40:00,61.7,57.5,22.63,SE,141,0.0,5.4,86,0.00,,---,0.00,VWS V14.01,2013-08-26 14:40:00,
2013-08-26 08:00:00,62.1,57.8,22.63,ESE,118,0.0,2.7,86,0.00,,---,0.00,VWS V14.01,2013-08-26 15:00:00,
2013-08-26 08:20:00,63.5,59.2,22.63,SE,131,0.0,2.7,86,0.00,,---,0.00,VWS V14.01,2013-08-26 15:20:00,
2013-08-26 08:40:00,64.6,59.6,22.63,ESE,120,2.7,5.4,84,0.00,,---,0.00,VWS V14.01,2013-08-26 15:40:00,
2013-08-26 09:00:00,65.5,59.2,22.63,SSW,196,2.2,4.0,80,0.00,,---,0.00,VWS V14.01,2013-08-26 16:00:00,
2013-08-26 09:20:00,66.9,58.8,22.63,ESE,122,0.0,3.6,75,0.00,,---,0.00,VWS V14.01,2013-08-26 16:20:00,
2013-08-26 09:40:00,66.6,57.3,22.63,SE,138,3.1,6.3,72,0.00,,---,0.00,VWS V14.01,2013-08-26 16:40:00,
2013-08-26 10:00:00,66.0,56.4,22.63,ESE,114,3.1,5.8,71,0.00,,---,0.00,VWS V14.01,2013-08-26 17:00:00,
2013-08-26 10:20:00,65.8,56.6,22.63,East,97,2.2,4.0,72,0.00,,---,0.00,VWS V14.01,2013-08-26 17:20:00,
2013-08-26 10:40:00,64.8,56.7,22.63,SE,133,2.2,5.4,75,0.00,,---,0.00,VWS V14.01,2013-08-26 17:40:00,
2013-08-26 11:00:00,65.7,57.9,22.63,SE,127,4.9,4.9,76,0.00,,---,0.00,VWS V14.01,2013-08-26 18:00:00,
2013-08-26 11:20:00,64.4,57.0,22.63,East,101,0.0,5.8,77,0.00,,---,0.00,VWS V14.01,2013-08-26 18:20:00,
2013-08-26 11:40:00,64.4,57.4,22.63,SE,125,2.7,4.0,78,0.00,,---,0.00,VWS V14.01,2013-08-26 18:40:00,
2013-08-26 12:00:00,64.4,58.1,22.63,NNE,13,0.0,3.1,80,0.00,,---,0.00,VWS V14.01,2013-08-26 19:00:00,
2013-08-26 12:20:00,66.6,59.5,22.63,NNW,330,0.0,2.7,78,0.00,,---,0.00,VWS V14.01,2013-08-26 19:20:00,
2013-08-26 12:40:00,70.0,57.3,22.63,NNW,345,0.0,3.1,64,0.00,,---,0.00,VWS V14.01,2013-08-26 19:40:00,
2013-08-26 13:00:00,67.3,54.3,22.63,SE,145,3.1,5.4,63,0.00,,---,0.00,VWS V14.01,2013-08-26 20:00:00,
2013-08-26 13:20:00,67.1,55.4,22.63,SSE,163,2.7,6.3,66,0.00,,---,0.00,VWS V14.01,2013-08-26 20:20:00,
2013-08-26 13:40:00,68.5,55.0,22.63,SE,144,3.6,4.9,62,0.00,,---,0.00,VWS V14.01,2013-08-26 20:40:00,
2013-08-26 14:00:00,69.1,54.6,22.63,SE,137,2.7,6.3,60,0.00,,---,0.00,VWS V14.01,2013-08-26 21:00:00,
2013-08-26 14:20:00,68.5,55.0,22.63,SSE,163,2.7,5.8,62,0.00,,---,0.00,VWS V14.01,2013-08-26 21:20:00,
2013-08-26 14:40:00,69.1,56.4,22.63,SSE,160,2.2,4.0,64,0.00,,---,0.00,VWS V14.01,2013-08-26 21:40:00,
2013-08-26 15:00:00,68.0,55.4,22.63,ESE,123,2.2,3.6,64,0.00,,---,0.00,VWS V14.01,2013-08-26 22:00:00,
2013-08-26 15:20:00,68.2,56.8,22.63,SE,127,2.7,4.0,67,0.00,,---,0.00,VWS V14.01,2013-08-26 22:20:00,
2013-08-26 15:40:00,68.2,56.0,22.63,ESE,121,2.2,3.6,65,0.00,,---,0.00,VWS V14.01,2013-08-26 22:40:00,
2013-08-26 16:00:00,69.1,56.0,22.63,ESE,119,0.0,4.0,63,0.00,,---,0.00,VWS V14.01,2013-08-26 23:00:00,
2013-08-26 16:20:00,69.8,56.2,22.63,SE,125,3.1,5.8,62,0.00,,---,0.00,VWS V14.01,2013-08-26 23:20:00,
2013-08-26 16:40:00,70.2,53.8,22.63,ESE,115,3.6,5.8,56,0.00,,---,0.00,VWS V14.01,2013-08-26 23:40:00,
2013-08-26 17:00:00,69.4,54.0,22.63,ESE,113,2.2,5.4,58,0.00,,---,0.00,VWS V14.01,2013-08-27 00:00:00,
2013-08-26 17:20:00,70.2,54.2,22.63,ENE,69,3.6,4.0,57,0.00,,---,0.00,VWS V14.01,2013-08-27 00:20:00,
2013-08-26 17:40:00,69.8,52.9,22.63,NE,39,2.7,4.9,55,0.00,,---,0.00,VWS V14.01,2013-08-27 00:40:00,
2013-08-26 18:00:00,69.1,52.7,22.63,NNE,17,0.0,4.0,56,0.00,,---,0.00,VWS V14.01,2013-08-27 01:00:00,
2013-08-26 18:20:00,67.8,53.4,22.63,SE,135,2.7,4.9,60,0.00,,---,0.00,VWS V14.01,2013-08-27 01:20:00,
2013-08-26 18:40:00,67.3,54.7,22.63,North,357,0.0,3.1,64,0.00,,---,0.00,VWS V14.01,2013-08-27 01:40:00,
2013-08-26 19:00:00,66.9,54.8,22.63,SE,124,2.2,3.1,65,0.00,,---,0.00,VWS V14.01,2013-08-27 02:00:00,
2013-08-26 19:20:00,65.8,55.8,22.63,SSE,163,3.6,4.0,70,0.00,,---,0.00,VWS V14.01,2013-08-27 02:20:00,
2013-08-26 19:40:00,64.8,56.3,22.63,SSE,150,3.1,4.0,74,0.00,,---,0.00,VWS V14.01,2013-08-27 02:40:00,
2013-08-26 20:00:00,64.4,56.3,22.63,SE,145,3.1,4.0,75,0.00,,---,0.00,VWS V14.01,2013-08-27 03:00:00,
2013-08-26 20:20:00,64.0,56.7,22.63,SE,131,0.0,4.0,77,0.00,,---,0.00,VWS V14.01,2013-08-27 03:20:00,
2013-08-26 20:40:00,63.7,56.3,22.63,SE,131,0.0,0.0,77,0.00,,---,0.00,VWS V14.01,2013-08-27 03:40:00,
2013-08-26 21:00:00,63.7,55.6,22.63,North,353,0.0,2.7,75,0.00,,---,0.00,VWS V14.01,2013-08-27 04:00:00,
2013-08-26 21:20:00,63.0,55.7,22.63,North,2,0.0,2.7,77,0.00,,---,0.00,VWS V14.01,2013-08-27 04:20:00,
2013-08-26 21:40:00,62.2,55.7,22.63,ENE,59,0.0,0.0,79,0.00,,---,0.00,VWS V14.01,2013-08-27 04:40:00,
2013-08-26 22:00:00,61.3,54.8,22.63,ENE,59,0.0,0.0,79,0.00,,---,0.00,VWS V14.01,2013-08-27 05:00:00,
2013-08-26 22:20:00,60.4,54.2,22.63,ENE,59,0.0,0.0,80,0.00,,---,0.00,VWS V14.01,2013-08-27 05:20:00,
2013-08-26 22:40:00,59.9,55.4,22.63,ENE,59,0.0,0.0,85,0.00,,---,0.00,VWS V14.01,2013-08-27 05:40:00,
2013-08-26 23:00:00,59.7,55.8,22.63,ENE,59,0.0,0.0,87,0.00,,---,0.00,VWS V14.01,2013-08-27 06:00:00,
2013-08-26 23:20:00,59.7,56.2,22.63,ENE,59,0.0,0.0,88,0.00,,---,0.00,VWS V14.01,2013-08-27 06:20:00,
2013-08-26 23:40:00,59.2,55.6,22.63,ENE,59,0.0,0.0,88,0.00,,---,0.00,VWS V14.01,2013-08-27 06:40:00,